Time;durP1;ratioP1;P1;durP2;ratioP2;P2;SDS_P1;SDS_P2;PMS_P1;PMS_P2;Temp;Humidity;BMP_temperature;BMP_pressure;BME280_temperature;BME280_humidity;BME280_pressure;Samples;Min_cycle;Max_cycle;Signal;HPM_P1;HPM_P2
2021/07/29 00:01:57;;;;;;;3.58;2.30;;;16.60;99.90;;;;;;6153179;23;20519;-90
2021/07/29 00:04:23;;;;;;;4.28;2.40;;;16.60;99.90;;;;;;6153758;23;20180;-90
2021/07/29 00:06:52;;;;;;;4.47;2.53;;;16.60;99.90;;;;;;6152558;23;20286;-90
2021/07/29 00:11:59;;;;;;;2.38;2.17;;;16.40;99.90;;;;;;6149794;23;20515;-90
2021/07/29 00:14:26;;;;;;;2.50;2.30;;;16.30;99.90;;;;;;6153429;23;20175;-90
2021/07/29 00:16:58;;;;;;;4.68;2.15;;;16.20;99.90;;;;;;6153583;23;20218;-90
2021/07/29 00:19:24;;;;;;;2.83;2.20;;;16.20;99.90;;;;;;6153696;23;20191;-90
2021/07/29 00:21:52;;;;;;;4.55;2.40;;;16.10;99.90;;;;;;6153769;23;20234;-90
2021/07/29 00:24:19;;;;;;;3.13;2.22;;;16.00;99.90;;;;;;6154248;23;20182;-90
2021/07/29 00:26:46;;;;;;;4.82;2.25;;;16.00;99.90;;;;;;6153645;23;20206;-90
2021/07/29 00:29:13;;;;;;;6.05;2.35;;;16.10;99.90;;;;;;6153677;23;20175;-90
2021/07/29 00:31:40;;;;;;;2.78;2.33;;;16.10;99.90;;;;;;6139093;23;20215;-90
2021/07/29 00:34:07;;;;;;;5.03;2.45;;;16.10;99.90;;;;;;6153556;23;20460;-90
2021/07/29 00:36:34;;;;;;;2.80;2.60;;;16.10;99.90;;;;;;6154313;23;20273;-91
2021/07/29 00:39:03;;;;;;;2.90;2.47;;;16.10;99.90;;;;;;6156057;23;20209;-89
2021/07/29 00:41:31;;;;;;;2.50;2.30;;;16.10;99.90;;;;;;6158825;23;20203;-89
2021/07/29 00:44:02;;;;;;;4.20;2.45;;;16.00;99.90;;;;;;6159604;23;20253;-89
2021/07/29 00:46:30;;;;;;;3.60;2.58;;;16.00;99.90;;;;;;6159526;23;20223;-89
2021/07/29 00:48:57;;;;;;;2.92;2.58;;;16.10;99.90;;;;;;6159709;23;20209;-89
2021/07/29 00:51:25;;;;;;;2.75;2.55;;;16.00;99.90;;;;;;6158979;23;20721;-89
2021/07/29 00:53:52;;;;;;;3.00;2.30;;;16.00;99.90;;;;;;6156540;23;20258;-92
2021/07/29 00:56:21;;;;;;;6.32;2.63;;;16.10;99.90;;;;;;6153158;23;20195;-90
2021/07/29 00:58:49;;;;;;;2.78;2.53;;;16.20;99.90;;;;;;6154699;23;20206;-90
2021/07/29 01:01:15;;;;;;;5.00;2.58;;;16.20;99.90;;;;;;6153976;23;20199;-90
2021/07/29 01:03:42;;;;;;;4.82;2.80;;;16.20;99.90;;;;;;6155581;23;20175;-90
2021/07/29 01:06:09;;;;;;;2.78;2.50;;;16.10;99.90;;;;;;6156053;23;20203;-91
2021/07/29 01:09:06;;;;;;;2.67;2.45;;;16.10;99.90;;;;;;6157342;23;20266;-90
2021/07/29 01:11:35;;;;;;;5.00;2.45;;;16.10;99.90;;;;;;6152563;23;20210;-90
2021/07/29 01:14:02;;;;;;;3.03;2.30;;;16.00;99.90;;;;;;6153532;23;20186;-91
2021/07/29 01:16:29;;;;;;;4.32;2.58;;;16.00;99.90;;;;;;6153006;23;20202;-91
2021/07/29 01:18:57;;;;;;;4.43;2.60;;;16.00;99.90;;;;;;6153309;23;20206;-90
2021/07/29 01:21:28;;;;;;;3.78;2.53;;;16.00;99.90;;;;;;6154246;23;20205;-91
2021/07/29 01:23:55;;;;;;;3.30;3.00;;;15.90;99.90;;;;;;6156345;23;20159;-90
2021/07/29 01:26:22;;;;;;;4.15;2.72;;;16.00;99.90;;;;;;6157388;23;20595;-90
2021/07/29 01:28:49;;;;;;;4.25;2.90;;;16.00;99.90;;;;;;6159952;23;20537;-91
2021/07/29 01:31:17;;;;;;;5.13;2.72;;;16.00;99.90;;;;;;6152374;23;20199;-91
2021/07/29 01:33:44;;;;;;;3.75;2.50;;;16.00;99.90;;;;;;6153329;23;20643;-90
2021/07/29 01:36:11;;;;;;;2.78;2.58;;;15.80;99.90;;;;;;6152536;23;20199;-90
2021/07/29 01:38:40;;;;;;;5.68;2.72;;;15.80;99.90;;;;;;6153188;23;20198;-90
2021/07/29 01:41:07;;;;;;;4.78;2.80;;;15.70;99.90;;;;;;6152029;23;20230;-91
2021/07/29 01:43:34;;;;;;;2.60;2.40;;;15.70;99.90;;;;;;6153959;23;20175;-90
2021/07/29 01:46:02;;;;;;;2.97;2.78;;;15.80;99.90;;;;;;6152216;23;20179;-91
2021/07/29 01:48:29;;;;;;;3.45;2.78;;;15.90;99.90;;;;;;6152837;23;20281;-91
2021/07/29 01:50:56;;;;;;;2.75;2.55;;;16.00;99.90;;;;;;6152655;23;20471;-90
2021/07/29 01:53:23;;;;;;;2.72;2.47;;;16.00;99.90;;;;;;6152469;23;20631;-90
2021/07/29 01:55:52;;;;;;;6.18;2.75;;;16.10;99.90;;;;;;6151969;23;20262;-90
2021/07/29 01:58:20;;;;;;;4.20;2.90;;;16.10;99.90;;;;;;6151997;23;20259;-91
2021/07/29 02:00:49;;;;;;;4.45;2.55;;;16.20;99.90;;;;;;6138113;23;20174;-90
2021/07/29 02:03:16;;;;;;;4.90;2.80;;;16.20;99.90;;;;;;6151634;23;20171;-91
2021/07/29 02:05:43;;;;;;;2.83;2.63;;;16.10;99.90;;;;;;6152659;23;20172;-91
2021/07/29 02:08:10;;;;;;;3.85;2.38;;;16.10;99.90;;;;;;6154566;23;20191;-90
2021/07/29 02:10:37;;;;;;;3.60;2.60;;;16.10;99.90;;;;;;6155405;23;20175;-90
2021/07/29 02:13:05;;;;;;;2.72;2.33;;;16.10;99.90;;;;;;6154798;23;20273;-90
2021/07/29 02:15:32;;;;;;;5.28;2.67;;;16.20;99.90;;;;;;6155414;23;20185;-91
2021/07/29 02:18:00;;;;;;;2.92;2.50;;;16.20;99.90;;;;;;6154787;23;20203;-90
2021/07/29 02:20:28;;;;;;;4.53;2.40;;;16.30;99.90;;;;;;6154640;23;20277;-91
2021/07/29 02:22:55;;;;;;;2.58;2.33;;;16.30;99.90;;;;;;6155080;23;20199;-90
2021/07/29 02:25:23;;;;;;;3.40;2.25;;;16.40;99.90;;;;;;6155273;23;20650;-90
2021/07/29 02:27:50;;;;;;;2.70;2.45;;;16.40;99.90;;;;;;6154262;23;20211;-90
2021/07/29 02:30:18;;;;;;;4.03;3.30;;;16.30;99.90;;;;;;6155128;23;20175;-90
2021/07/29 02:32:45;;;;;;;3.42;3.13;;;16.20;99.90;;;;;;6154649;23;20203;-91
2021/07/29 02:35:12;;;;;;;3.17;2.88;;;16.20;99.90;;;;;;6154929;23;20181;-90
2021/07/29 02:37:39;;;;;;;2.75;2.55;;;16.10;99.90;;;;;;6150760;23;20218;-90
2021/07/29 02:40:07;;;;;;;3.00;2.70;;;16.00;99.90;;;;;;6151950;23;20195;-91
2021/07/29 02:42:34;;;;;;;2.58;2.38;;;16.00;99.90;;;;;;6151857;23;20516;-91
2021/07/29 02:45:01;;;;;;;2.67;2.47;;;16.00;99.90;;;;;;6152413;23;20360;-90
2021/07/29 02:47:29;;;;;;;2.88;2.63;;;16.10;99.90;;;;;;6151316;23;20279;-90
2021/07/29 02:49:56;;;;;;;3.75;2.33;;;16.20;99.90;;;;;;6152774;23;20510;-90
2021/07/29 02:52:23;;;;;;;5.63;2.22;;;16.20;99.90;;;;;;6151612;23;20218;-90
2021/07/29 02:54:50;;;;;;;4.15;2.63;;;16.20;99.90;;;;;;6152250;23;20498;-91
2021/07/29 02:57:18;;;;;;;3.28;2.40;;;16.20;99.90;;;;;;6151848;23;20203;-91
2021/07/29 02:59:45;;;;;;;4.80;2.80;;;16.20;99.90;;;;;;6151618;23;20203;-91
2021/07/29 03:02:12;;;;;;;2.97;2.65;;;16.20;99.90;;;;;;6151421;23;20202;-90
2021/07/29 03:04:40;;;;;;;3.30;2.50;;;16.10;99.90;;;;;;6152479;23;20715;-91
2021/07/29 03:07:08;;;;;;;3.47;2.47;;;16.10;99.90;;;;;;6151043;23;20201;-90
2021/07/29 03:09:35;;;;;;;2.60;2.40;;;16.00;99.90;;;;;;6153606;23;20694;-91
2021/07/29 03:12:02;;;;;;;3.63;2.50;;;16.00;99.90;;;;;;6153799;23;20209;-91
2021/07/29 03:14:29;;;;;;;3.42;2.30;;;16.10;99.90;;;;;;6154395;23;20616;-90
2021/07/29 03:16:56;;;;;;;2.60;2.40;;;16.10;99.90;;;;;;6152358;23;20199;-90
2021/07/29 03:19:23;;;;;;;2.95;2.65;;;16.10;99.90;;;;;;6153111;23;20233;-90
2021/07/29 03:21:51;;;;;;;3.38;2.40;;;16.10;99.90;;;;;;6153768;23;20512;-90
2021/07/29 03:24:18;;;;;;;6.88;2.40;;;16.20;99.90;;;;;;6153728;23;20245;-90
2021/07/29 03:26:45;;;;;;;6.68;2.28;;;16.10;99.90;;;;;;6153977;23;20282;-90
2021/07/29 03:29:13;;;;;;;5.18;2.50;;;16.10;99.90;;;;;;6153730;23;20192;-90
2021/07/29 03:31:41;;;;;;;2.65;2.45;;;16.10;99.90;;;;;;6153901;23;20206;-90
2021/07/29 03:34:08;;;;;;;3.88;2.50;;;16.20;99.90;;;;;;6153471;23;20179;-90
2021/07/29 03:36:35;;;;;;;3.00;2.40;;;16.20;99.90;;;;;;6154171;23;20199;-90
2021/07/29 03:39:05;;;;;;;3.50;2.47;;;16.20;99.90;;;;;;6154079;23;20195;-90
2021/07/29 03:41:32;;;;;;;2.83;2.58;;;16.10;99.90;;;;;;6153786;23;20697;-90
2021/07/29 03:43:59;;;;;;;4.13;2.40;;;16.10;99.90;;;;;;6154421;23;20186;-90
2021/07/29 03:46:26;;;;;;;4.05;2.40;;;16.10;99.90;;;;;;6153578;23;20696;-90
2021/07/29 03:48:56;;;;;;;3.20;2.70;;;16.10;99.90;;;;;;6154320;23;20213;-90
2021/07/29 03:51:24;;;;;;;3.47;2.40;;;16.20;99.90;;;;;;6153023;23;20214;-90
2021/07/29 03:53:51;;;;;;;2.90;2.60;;;16.10;99.90;;;;;;6154479;23;20262;-90
2021/07/29 03:56:20;;;;;;;3.03;2.65;;;15.90;99.90;;;;;;6153310;23;20205;-90
2021/07/29 03:58:47;;;;;;;3.00;2.70;;;15.80;99.90;;;;;;6154427;23;20176;-90
2021/07/29 04:01:14;;;;;;;5.57;3.05;;;15.80;99.90;;;;;;6153046;23;20198;-90
2021/07/29 04:03:41;;;;;;;6.60;3.30;;;15.70;99.90;;;;;;6153737;23;20233;-90
2021/07/29 04:06:08;;;;;;;4.47;2.55;;;15.50;99.90;;;;;;6153247;23;20199;-90
2021/07/29 04:08:36;;;;;;;7.28;2.80;;;15.50;99.90;;;;;;6153528;23;20169;-89
2021/07/29 04:11:06;;;;;;;4.05;2.70;;;15.60;99.90;;;;;;6153372;23;20180;-89
2021/07/29 04:13:35;;;;;;;7.72;2.88;;;15.60;99.90;;;;;;6155956;23;20497;-89
2021/07/29 04:16:02;;;;;;;3.33;2.80;;;15.80;99.90;;;;;;6155448;23;20171;-89
2021/07/29 04:18:31;;;;;;;6.32;2.60;;;16.20;99.90;;;;;;6156615;23;20178;-89
2021/07/29 04:20:58;;;;;;;5.57;2.88;;;16.40;99.90;;;;;;6154170;23;20195;-88
2021/07/29 04:23:25;;;;;;;3.88;2.40;;;16.60;99.10;;;;;;6156488;23;20201;-91
2021/07/29 04:25:52;;;;;;;5.88;2.70;;;16.70;99.10;;;;;;6130013;23;20171;-89
2021/07/29 04:28:20;;;;;;;5.78;2.45;;;16.80;97.80;;;;;;6156360;23;20176;-89
2021/07/29 04:30:48;;;;;;;5.20;2.50;;;16.90;98.00;;;;;;6130093;23;20202;-89
2021/07/29 04:33:15;;;;;;;3.97;2.70;;;16.80;97.30;;;;;;6157863;23;20171;-89
2021/07/29 04:35:42;;;;;;;6.10;2.67;;;16.80;97.80;;;;;;6159398;23;20171;-89
2021/07/29 04:38:09;;;;;;;3.85;2.30;;;17.00;98.90;;;;;;6158096;23;20201;-89
2021/07/29 04:40:36;;;;;;;7.43;2.40;;;17.10;97.40;;;;;;6156948;23;20206;-89
2021/07/29 04:43:04;;;;;;;5.43;2.30;;;17.30;97.70;;;;;;6157015;23;20551;-90
2021/07/29 04:45:31;;;;;;;5.75;2.50;;;17.40;96.30;;;;;;6159127;23;20211;-89
2021/07/29 04:47:59;;;;;;;4.68;2.60;;;17.50;96.00;;;;;;6158927;23;20209;-89
2021/07/29 04:50:27;;;;;;;5.85;2.42;;;17.50;95.80;;;;;;6133034;23;20184;-90
2021/07/29 04:52:54;;;;;;;2.60;2.10;;;17.50;95.80;;;;;;6158586;23;20223;-89
2021/07/29 04:55:21;;;;;;;3.58;2.35;;;17.50;95.70;;;;;;6158471;23;20496;-89
2021/07/29 04:57:52;;;;;;;3.33;2.28;;;17.60;95.30;;;;;;6131736;23;20203;-90
2021/07/29 05:00:19;;;;;;;4.10;2.53;;;17.50;95.00;;;;;;6133248;23;20199;-89
2021/07/29 05:02:46;;;;;;;4.03;2.10;;;17.40;95.20;;;;;;6158609;23;20199;-89
2021/07/29 05:05:15;;;;;;;7.13;2.53;;;17.30;95.80;;;;;;6161397;23;20190;-89
2021/07/29 05:07:42;;;;;;;5.15;2.53;;;17.10;95.20;;;;;;6161429;23;20528;-88
2021/07/29 05:10:10;;;;;;;3.63;2.53;;;17.10;96.80;;;;;;6159724;23;20176;-89
2021/07/29 05:12:37;;;;;;;3.45;2.22;;;17.20;96.20;;;;;;6161916;23;20211;-89
2021/07/29 05:15:05;;;;;;;3.08;2.22;;;17.30;95.70;;;;;;6160553;23;20525;-89
2021/07/29 05:17:31;;;;;;;2.20;2.00;;;17.40;95.60;;;;;;6160776;23;20772;-88
2021/07/29 05:19:58;;;;;;;3.50;1.90;;;17.30;95.20;;;;;;6159868;23;20199;-88
2021/07/29 05:22:27;;;;;;;3.90;2.40;;;17.50;95.70;;;;;;6158650;23;20203;-88
2021/07/29 05:24:54;;;;;;;2.80;2.15;;;17.40;95.50;;;;;;6159704;23;20175;-89
2021/07/29 05:27:21;;;;;;;4.15;2.25;;;17.60;95.70;;;;;;6159342;23;20211;-89
2021/07/29 05:29:48;;;;;;;5.43;2.30;;;17.60;95.20;;;;;;6159481;23;20175;-88
2021/07/29 05:32:15;;;;;;;2.85;2.28;;;17.80;94.30;;;;;;6157835;23;20210;-88
2021/07/29 05:34:42;;;;;;;3.60;2.30;;;18.10;94.40;;;;;;6158589;23;20193;-90
2021/07/29 05:37:10;;;;;;;5.68;2.60;;;18.30;93.30;;;;;;6156796;23;20209;-89
2021/07/29 05:39:39;;;;;;;2.47;2.00;;;18.40;93.30;;;;;;6156742;23;20195;-88
2021/07/29 05:42:06;;;;;;;2.35;2.15;;;18.40;93.40;;;;;;6155732;23;20203;-89
2021/07/29 05:44:33;;;;;;;3.53;2.20;;;18.50;93.20;;;;;;6155987;23;20175;-89
2021/07/29 05:47:01;;;;;;;3.38;1.92;;;18.50;92.70;;;;;;6155491;23;20203;-89
2021/07/29 05:49:28;;;;;;;8.63;2.50;;;18.60;93.10;;;;;;6149675;23;20210;-89
2021/07/29 05:51:55;;;;;;;3.47;2.08;;;18.70;92.70;;;;;;6155010;23;20270;-89
2021/07/29 05:54:23;;;;;;;2.70;2.40;;;18.70;92.30;;;;;;6154489;23;20175;-90
2021/07/29 05:56:53;;;;;;;4.57;2.60;;;18.70;93.20;;;;;;6154298;23;20217;-89
2021/07/29 05:59:20;;;;;;;4.60;2.58;;;18.70;93.40;;;;;;6154426;23;20721;-90
2021/07/29 06:01:48;;;;;;;2.95;2.40;;;18.60;93.20;;;;;;6151515;23;20690;-88
2021/07/29 06:04:15;;;;;;;4.32;2.55;;;18.40;93.60;;;;;;6151690;23;20172;-89
2021/07/29 06:06:42;;;;;;;5.60;2.58;;;18.40;93.90;;;;;;6151682;23;20215;-89
2021/07/29 06:09:09;;;;;;;5.70;2.47;;;18.30;93.80;;;;;;6152396;23;20498;-87
2021/07/29 06:11:36;;;;;;;2.65;2.13;;;18.20;94.40;;;;;;6153762;23;20195;-87
2021/07/29 06:14:04;;;;;;;4.28;2.28;;;18.20;94.10;;;;;;6152365;23;20624;-88
2021/07/29 06:16:31;;;;;;;3.17;2.53;;;18.30;94.30;;;;;;6152040;23;20198;-88
2021/07/29 06:19:06;;;;;;;2.45;2.25;;;18.40;94.30;;;;;;6151239;23;20182;-88
2021/07/29 06:21:33;;;;;;;2.55;2.30;;;18.70;93.40;;;;;;6153073;23;20202;-92
2021/07/29 06:24:00;;;;;;;2.42;2.22;;;19.00;92.40;;;;;;6154302;23;20175;-89
2021/07/29 06:26:27;;;;;;;2.55;2.35;;;19.40;91.50;;;;;;6152636;23;20282;-90
2021/07/29 06:28:55;;;;;;;3.63;2.20;;;19.70;90.90;;;;;;6153422;23;20697;-90
2021/07/29 06:31:23;;;;;;;2.88;2.28;;;19.80;90.50;;;;;;6153621;23;20731;-89
2021/07/29 06:33:50;;;;;;;2.42;2.22;;;19.70;90.20;;;;;;6153620;23;20198;-90
2021/07/29 06:36:18;;;;;;;4.03;2.45;;;19.60;89.00;;;;;;6152985;23;20207;-88
2021/07/29 06:38:45;;;;;;;4.32;2.40;;;19.70;90.10;;;;;;6153237;23;20203;-88
2021/07/29 06:41:12;;;;;;;2.55;2.35;;;19.70;90.20;;;;;;6153589;23;20530;-89
2021/07/29 06:43:39;;;;;;;2.95;2.25;;;19.90;88.50;;;;;;6154826;23;20178;-89
2021/07/29 06:46:08;;;;;;;4.68;2.20;;;20.00;87.80;;;;;;6154567;23;20175;-88
2021/07/29 06:48:37;;;;;;;3.60;2.35;;;20.00;87.70;;;;;;6154860;23;20206;-88
2021/07/29 06:51:04;;;;;;;3.65;2.50;;;20.00;88.60;;;;;;6156400;23;20262;-88
2021/07/29 06:53:35;;;;;;;2.58;2.38;;;20.00;89.30;;;;;;6158570;23;20181;-88
2021/07/29 06:56:02;;;;;;;3.13;2.75;;;19.90;90.20;;;;;;6158085;23;20223;-89
2021/07/29 06:58:29;;;;;;;2.55;2.35;;;19.80;90.50;;;;;;6157017;23;20512;-89
2021/07/29 07:00:56;;;;;;;2.60;2.40;;;19.70;89.20;;;;;;6158858;23;20202;-88
2021/07/29 07:03:23;;;;;;;3.08;2.60;;;19.80;90.00;;;;;;6158209;23;20185;-88
2021/07/29 07:05:51;;;;;;;2.95;2.65;;;19.90;89.60;;;;;;6156738;23;20175;-89
2021/07/29 07:08:18;;;;;;;2.55;2.30;;;20.10;87.50;;;;;;6159982;23;20250;-89
2021/07/29 07:10:45;;;;;;;4.82;2.42;;;20.30;86.20;;;;;;6161058;23;20562;-89
2021/07/29 07:13:13;;;;;;;2.95;2.50;;;20.60;85.80;;;;;;6158972;23;20265;-89
2021/07/29 07:15:42;;;;;;;4.13;2.58;;;20.90;81.40;;;;;;6157772;23;20178;-88
2021/07/29 07:18:09;;;;;;;5.32;2.92;;;21.40;80.30;;;;;;6157427;23;20750;-88
2021/07/29 07:20:37;;;;;;;2.78;2.50;;;21.70;75.40;;;;;;6159762;23;20199;-89
2021/07/29 07:23:05;;;;;;;5.25;2.78;;;21.90;73.30;;;;;;6158897;23;20207;-89
2021/07/29 07:25:35;;;;;;;3.40;2.58;;;21.90;73.20;;;;;;6159783;23;20262;-89
2021/07/29 07:28:02;;;;;;;4.30;2.88;;;21.80;71.60;;;;;;6156819;23;20207;-87
2021/07/29 07:30:29;;;;;;;5.68;2.70;;;21.90;71.70;;;;;;6156020;23;20214;-89
2021/07/29 07:32:57;;;;;;;4.32;2.83;;;22.00;72.00;;;;;;6154816;23;20207;-88
2021/07/29 07:35:24;;;;;;;3.10;2.80;;;21.90;71.40;;;;;;6157569;23;20991;-87
2021/07/29 07:37:53;;;;;;;2.67;2.45;;;21.90;72.10;;;;;;6155589;23;20242;-88
2021/07/29 07:40:21;;;;;;;3.05;2.60;;;21.80;71.70;;;;;;6157171;23;20210;-87
2021/07/29 07:42:49;;;;;;;3.58;2.45;;;21.70;73.20;;;;;;6155358;23;20203;-85
2021/07/29 07:45:16;;;;;;;4.78;2.50;;;21.80;74.00;;;;;;6158626;23;20624;-87
2021/07/29 07:47:43;;;;;;;5.05;2.90;;;22.10;75.80;;;;;;6159800;23;20217;-86
2021/07/29 07:50:10;;;;;;;3.17;2.88;;;22.50;67.80;;;;;;6160981;23;20497;-86
2021/07/29 07:52:37;;;;;;;3.03;2.75;;;22.50;64.70;;;;;;6158108;23;20235;-85
2021/07/29 07:55:05;;;;;;;3.95;2.92;;;22.50;65.50;;;;;;6164253;23;20179;-86
2021/07/29 07:57:33;;;;;;;2.97;2.70;;;22.70;64.60;;;;;;6159447;23;20594;-85
2021/07/29 08:00:00;;;;;;;3.03;2.83;;;22.80;65.10;;;;;;6139430;23;20182;-85
2021/07/29 08:02:27;;;;;;;3.10;2.90;;;22.90;62.70;;;;;;6168676;23;20290;-80
2021/07/29 08:04:54;;;;;;;3.40;3.10;;;23.10;62.10;;;;;;6169273;23;20179;-81
2021/07/29 08:07:21;;;;;;;3.13;2.92;;;23.20;58.80;;;;;;6170362;23;20207;-81
2021/07/29 08:09:48;;;;;;;3.58;3.15;;;23.10;54.00;;;;;;6162851;23;20175;-84
2021/07/29 08:12:15;;;;;;;5.13;3.25;;;23.10;55.50;;;;;;6158049;23;20698;-84
2021/07/29 08:14:44;;;;;;;2.90;2.60;;;23.00;55.00;;;;;;6161532;23;20202;-84
2021/07/29 08:17:10;;;;;;;3.20;2.90;;;22.90;52.30;;;;;;6157705;23;20199;-85
2021/07/29 08:19:37;;;;;;;3.47;3.15;;;22.70;54.10;;;;;;6156125;23;20197;-87
2021/07/29 08:22:04;;;;;;;3.53;3.22;;;22.60;52.50;;;;;;6155670;23;20203;-87
2021/07/29 08:24:33;;;;;;;4.90;3.10;;;22.60;51.00;;;;;;6157439;23;20469;-86
2021/07/29 08:27:00;;;;;;;4.53;3.00;;;22.50;51.10;;;;;;6155121;23;20201;-87
2021/07/29 08:29:30;;;;;;;3.97;3.05;;;22.50;50.20;;;;;;6156550;23;20179;-87
2021/07/29 08:31:58;;;;;;;3.85;2.90;;;22.50;53.10;;;;;;6156083;23;20874;-86
2021/07/29 08:34:25;;;;;;;3.40;3.10;;;22.50;53.40;;;;;;6158074;23;20179;-86
2021/07/29 08:36:52;;;;;;;4.00;3.10;;;22.60;50.70;;;;;;6156951;23;20209;-85
2021/07/29 08:39:19;;;;;;;3.45;3.15;;;22.60;49.90;;;;;;6157495;23;20279;-86
2021/07/29 08:41:46;;;;;;;3.60;3.30;;;22.70;50.40;;;;;;6156645;23;20207;-87
2021/07/29 08:44:13;;;;;;;3.40;3.10;;;22.80;48.60;;;;;;6155538;23;20195;-86
2021/07/29 08:46:45;;;;;;;3.50;3.20;;;23.00;45.30;;;;;;6155862;23;20234;-85
2021/07/29 08:49:14;;;;;;;3.53;3.13;;;23.50;45.30;;;;;;6155935;23;20239;-85
2021/07/29 08:51:42;;;;;;;4.15;3.00;;;24.50;40.90;;;;;;6159705;23;20207;-86
2021/07/29 08:54:12;;;;;;;3.53;3.22;;;26.30;34.80;;;;;;6155859;23;20174;-86
2021/07/29 08:56:39;;;;;;;4.07;3.40;;;28.70;26.80;;;;;;6154217;23;20281;-87
2021/07/29 08:59:07;;;;;;;3.30;3.10;;;29.80;22.60;;;;;;6152159;23;20197;-85
2021/07/29 09:01:44;;;;;;;3.70;3.35;;;31.50;19.50;;;;;;6152333;23;20205;-84
2021/07/29 09:04:15;;;;;;;4.47;3.50;;;32.80;18.90;;;;;;6152850;23;20178;-85
2021/07/29 09:06:57;;;;;;;3.97;3.67;;;34.10;16.40;;;;;;6152960;23;20209;-86
2021/07/29 09:09:36;;;;;;;4.00;3.70;;;34.80;14.60;;;;;;6154403;23;20175;-85
2021/07/29 09:12:17;;;;;;;4.15;3.85;;;34.90;14.80;;;;;;6154691;23;20513;-85
2021/07/29 09:14:44;;;;;;;4.15;3.85;;;36.00;13.00;;;;;;6157130;23;20163;-84
2021/07/29 09:17:12;;;;;;;4.55;4.20;;;35.80;13.80;;;;;;6154778;23;20206;-84
2021/07/29 09:19:42;;;;;;;4.22;3.85;;;35.50;13.50;;;;;;6157940;23;20167;-85
2021/07/29 09:22:16;;;;;;;4.78;4.38;;;36.20;12.80;;;;;;6157520;23;20506;-84
2021/07/29 09:25:06;;;;;;;4.65;4.32;;;36.30;12.10;;;;;;6159275;23;20173;-85
2021/07/29 09:27:47;;;;;;;5.35;4.78;;;36.90;11.10;;;;;;6158319;23;20245;-85
2021/07/29 09:30:18;;;;;;;5.35;4.95;;;36.60;10.80;;;;;;6158242;23;20158;-84
2021/07/29 09:32:52;;;;;;;4.82;4.53;;;36.60;11.00;;;;;;6159605;23;20202;-84
2021/07/29 09:35:34;;;;;;;5.03;4.63;;;36.00;12.50;;;;;;6157026;23;20626;-84
2021/07/29 09:38:01;;;;;;;4.80;4.50;;;36.40;11.60;;;;;;6155829;23;20213;-84
2021/07/29 09:40:41;;;;;;;4.63;4.32;;;37.00;12.30;;;;;;6155553;23;20181;-85
2021/07/29 09:43:10;;;;;;;5.97;5.47;;;38.40;11.10;;;;;;6154518;23;20213;-86
2021/07/29 09:45:37;;;;;;;6.22;5.72;;;39.00;8.80;;;;;;6154558;23;20179;-86
2021/07/29 09:48:07;;;;;;;5.57;5.18;;;39.80;8.70;;;;;;6153777;23;20536;-86
2021/07/29 09:50:36;;;;;;;5.40;5.10;;;39.00;8.50;;;;;;6154484;23;20226;-85
2021/07/29 09:53:04;;;;;;;5.82;5.43;;;37.50;9.00;;;;;;6154938;23;20203;-86
2021/07/29 09:55:32;;;;;;;5.63;5.20;;;37.30;9.90;;;;;;6158890;23;20186;-85
2021/07/29 09:58:00;;;;;;;5.57;5.18;;;37.40;10.60;;;;;;6157218;23;20939;-84
2021/07/29 10:00:27;;;;;;;5.95;5.40;;;37.60;10.80;;;;;;6158365;23;20214;-86
2021/07/29 10:02:55;;;;;;;6.00;5.60;;;38.20;11.20;;;;;;6158447;23;20210;-86
2021/07/29 10:05:27;;;;;;;5.80;5.40;;;37.60;10.80;;;;;;6160525;23;20496;-86
2021/07/29 10:08:00;;;;;;;6.40;5.90;;;38.40;10.20;;;;;;6159965;23;20203;-86
2021/07/29 10:10:28;;;;;;;6.50;6.10;;;39.10;10.80;;;;;;6160947;23;20167;-85
2021/07/29 10:12:55;;;;;;;6.43;5.88;;;38.20;11.00;;;;;;6160160;23;20203;-85
2021/07/29 10:15:42;;;;;;;6.10;5.70;;;38.10;11.00;;;;;;6160215;23;20175;-84
2021/07/29 10:18:10;;;;;;;6.35;5.95;;;37.90;10.20;;;;;;6158116;23;20268;-84
2021/07/29 10:20:38;;;;;;;6.43;5.93;;;37.90;11.20;;;;;;6160567;23;20175;-84
2021/07/29 10:23:53;;;;;;;6.60;6.10;;;37.90;11.30;;;;;;6160973;23;20198;-84
2021/07/29 10:26:21;;;;;;;6.35;5.88;;;37.50;10.10;;;;;;6158328;23;20669;-86
2021/07/29 10:28:48;;;;;;;7.07;6.45;;;37.20;10.60;;;;;;6159018;23;20258;-85
2021/07/29 10:31:16;;;;;;;6.53;6.03;;;37.30;11.30;;;;;;6159602;23;20208;-85
2021/07/29 10:33:45;;;;;;;6.95;5.78;;;37.10;11.10;;;;;;6158741;23;20185;-85
2021/07/29 10:36:41;;;;;;;6.00;5.50;;;37.10;11.20;;;;;;6156996;23;20206;-86
2021/07/29 10:39:10;;;;;;;5.88;5.28;;;35.60;13.30;;;;;;6134177;23;20190;-86
2021/07/29 10:41:54;;;;;;;5.32;4.93;;;35.70;13.80;;;;;;6158623;23;20214;-85
2021/07/29 10:44:46;;;;;;;5.40;5.00;;;35.60;14.80;;;;;;6160209;23;20544;-86
2021/07/29 10:47:18;;;;;;;5.20;4.80;;;35.40;14.70;;;;;;6156214;23;20567;-85
2021/07/29 10:50:19;;;;;;;5.03;4.60;;;34.70;15.60;;;;;;6155345;23;20186;-85
2021/07/29 10:52:53;;;;;;;4.85;4.50;;;32.70;16.80;;;;;;6154130;23;20205;-85
2021/07/29 10:55:22;;;;;;;4.90;4.55;;;33.10;18.20;;;;;;6154717;23;20528;-85
2021/07/29 10:58:07;;;;;;;6.53;4.72;;;33.30;18.30;;;;;;6154892;23;20221;-85
2021/07/29 11:00:33;;;;;;;4.93;4.47;;;33.10;16.80;;;;;;6154296;23;20255;-86
2021/07/29 11:03:08;;;;;;;4.65;4.22;;;32.00;17.60;;;;;;6154564;23;20202;-84
2021/07/29 11:05:43;;;;;;;5.15;4.50;;;31.60;18.80;;;;;;6156230;23;20476;-85
2021/07/29 11:08:11;;;;;;;4.80;4.47;;;31.90;20.40;;;;;;6153453;23;20205;-85
2021/07/29 11:10:39;;;;;;;4.45;4.05;;;31.90;20.70;;;;;;6156987;23;20170;-85
2021/07/29 11:13:07;;;;;;;5.03;4.63;;;32.20;19.20;;;;;;6152785;23;20254;-86
2021/07/29 11:15:39;;;;;;;5.88;4.35;;;31.10;20.10;;;;;;6152293;23;20230;-86
2021/07/29 11:18:16;;;;;;;5.03;4.63;;;30.30;22.80;;;;;;6152569;23;20217;-84
2021/07/29 11:20:43;;;;;;;5.85;4.57;;;30.20;24.10;;;;;;6153829;23;20206;-84
2021/07/29 11:23:14;;;;;;;4.50;4.10;;;30.00;25.00;;;;;;6152184;23;20666;-86
2021/07/29 11:28:45;;;;;;;4.90;4.40;;;29.30;24.10;;;;;;5144354;27;20546;-84
2021/07/29 11:31:15;;;;;;;4.72;4.30;;;28.60;27.00;;;;;;5129173;27;20220;-83
2021/07/29 11:33:48;;;;;;;4.80;4.30;;;28.70;27.60;;;;;;5070475;28;20240;-84
2021/07/29 11:36:17;;;;;;;5.97;4.80;;;28.60;26.80;;;;;;5074761;28;20615;-87
2021/07/29 11:38:44;;;;;;;4.65;4.13;;;28.20;27.40;;;;;;5068309;28;20200;-86
2021/07/29 11:41:10;;;;;;;5.13;4.38;;;28.10;30.40;;;;;;5062066;28;20237;-84
2021/07/29 11:43:37;;;;;;;4.50;4.10;;;28.10;31.00;;;;;;5067436;28;20211;-83
2021/07/29 11:46:06;;;;;;;4.53;4.13;;;28.10;27.40;;;;;;5066137;28;20254;-84
2021/07/29 11:48:33;;;;;;;4.40;4.00;;;27.80;27.00;;;;;;5067364;28;20268;-85
2021/07/29 11:51:00;;;;;;;4.22;3.83;;;27.70;27.80;;;;;;5066951;28;20201;-83
2021/07/29 11:53:39;;;;;;;4.80;4.30;;;27.80;27.70;;;;;;5068628;28;20227;-83
2021/07/29 11:56:08;;;;;;;5.55;4.50;;;27.80;30.70;;;;;;5067482;28;20664;-84
2021/07/29 11:58:36;;;;;;;4.82;4.32;;;27.60;30.50;;;;;;5069920;28;20292;-84
2021/07/29 12:01:10;;;;;;;6.05;4.22;;;27.40;29.20;;;;;;5068928;28;20502;-84
2021/07/29 12:03:42;;;;;;;4.10;3.80;;;27.00;29.30;;;;;;5064094;28;20235;-83
2021/07/29 12:06:10;;;;;;;5.07;4.50;;;26.80;31.10;;;;;;5066822;28;20197;-83
2021/07/29 12:08:40;;;;;;;4.60;4.20;;;27.20;29.70;;;;;;5069961;28;20224;-83
2021/07/29 12:11:08;;;;;;;4.75;4.35;;;27.50;29.80;;;;;;5061495;28;20201;-83
2021/07/29 12:13:35;;;;;;;4.28;3.88;;;27.60;30.70;;;;;;5070637;28;21012;-84
2021/07/29 12:16:02;;;;;;;4.50;4.10;;;27.70;30.00;;;;;;5070405;28;20212;-83
2021/07/29 12:18:30;;;;;;;4.53;4.13;;;27.60;29.80;;;;;;5064662;28;20197;-83
2021/07/29 12:20:58;;;;;;;4.50;4.10;;;27.60;31.10;;;;;;5056296;28;20204;-85
2021/07/29 12:23:26;;;;;;;5.15;3.90;;;27.60;28.80;;;;;;5070004;28;20197;-85
2021/07/29 12:25:56;;;;;;;4.75;4.07;;;27.50;31.40;;;;;;5066848;28;20199;-83
2021/07/29 12:28:39;;;;;;;4.43;4.03;;;27.50;30.90;;;;;;5069303;28;20283;-84
2021/07/29 12:31:18;;;;;;;4.72;4.32;;;27.40;29.10;;;;;;5065987;28;20196;-84
2021/07/29 12:33:51;;;;;;;4.72;4.00;;;27.50;30.90;;;;;;5072501;28;20193;-84
2021/07/29 12:36:20;;;;;;;5.72;4.05;;;27.40;29.90;;;;;;5071800;28;20225;-83
2021/07/29 12:38:56;;;;;;;4.38;4.05;;;27.40;29.00;;;;;;5063941;28;20206;-83
2021/07/29 12:41:30;;;;;;;4.45;4.05;;;27.20;28.60;;;;;;5055973;28;20225;-83
2021/07/29 12:44:12;;;;;;;5.18;4.15;;;27.20;30.60;;;;;;5058618;28;20197;-84
2021/07/29 12:46:39;;;;;;;4.20;3.85;;;27.20;30.00;;;;;;5049768;28;20222;-83
2021/07/29 12:49:08;;;;;;;4.28;3.90;;;27.10;30.60;;;;;;5048525;28;20226;-81
2021/07/29 12:51:36;;;;;;;4.30;3.90;;;26.90;29.80;;;;;;5055022;28;20231;-83
2021/07/29 12:54:04;;;;;;;5.32;4.20;;;27.00;29.40;;;;;;5058085;28;20219;-84
2021/07/29 12:56:31;;;;;;;5.00;4.20;;;27.40;29.10;;;;;;5053211;28;20217;-83
2021/07/29 12:58:58;;;;;;;4.50;4.10;;;27.90;28.80;;;;;;5057136;28;20197;-84
2021/07/29 13:01:24;;;;;;;5.85;3.72;;;27.80;27.30;;;;;;5056909;28;20304;-84
2021/07/29 13:03:51;;;;;;;4.00;3.70;;;27.80;27.30;;;;;;5054878;28;20201;-83